Time;durP1;ratioP1;P1;durP2;ratioP2;P2;SDS_P1;SDS_P2;PMS_P1;PMS_P2;Temp;Humidity;BMP_temperature;BMP_pressure;BME280_temperature;BME280_humidity;BME280_pressure;Samples;Min_cycle;Max_cycle;Signal;HPM_P1;HPM_P2
2022/09/27 00:01:01;;;;;;;2.77;1.50;;;12.50;99.90;;;;;;5098231;28;20430;-84
2022/09/27 00:03:29;;;;;;;7.27;2.17;;;12.50;99.90;;;;;;5099722;28;20525;-83
2022/09/27 00:06:14;;;;;;;1.77;1.67;;;12.50;99.90;;;;;;5096702;28;21011;-84
2022/09/27 00:08:42;;;;;;;3.23;2.00;;;12.50;99.90;;;;;;5108893;28;20450;-84
2022/09/27 00:11:21;;;;;;;2.60;1.80;;;12.50;99.90;;;;;;5099600;28;20499;-83
2022/09/27 00:13:48;;;;;;;2.20;1.20;;;12.50;99.90;;;;;;5120244;28;20530;-81
2022/09/27 00:16:15;;;;;;;2.10;1.30;;;12.50;99.90;;;;;;5137024;28;20441;-82
2022/09/27 00:18:41;;;;;;;2.50;1.40;;;12.50;99.90;;;;;;5137138;28;20504;-83
2022/09/27 00:21:11;;;;;;;2.53;1.40;;;12.40;99.90;;;;;;5106483;28;20433;-81
2022/09/27 00:23:39;;;;;;;3.97;1.40;;;12.40;99.90;;;;;;5116197;28;20478;-83
2022/09/27 00:26:09;;;;;;;1.37;1.20;;;12.40;99.90;;;;;;5109579;28;20457;-82
2022/09/27 00:28:36;;;;;;;1.47;1.10;;;12.40;99.90;;;;;;5089163;28;20941;-83
2022/09/27 00:31:03;;;;;;;3.40;1.37;;;12.30;99.90;;;;;;5102865;28;20470;-83
2022/09/27 00:33:29;;;;;;;3.13;1.60;;;12.30;99.90;;;;;;5119314;28;20476;-83
2022/09/27 00:36:04;;;;;;;1.90;1.20;;;12.30;99.90;;;;;;5119851;28;20457;-83
2022/09/27 00:38:30;;;;;;;2.10;1.47;;;12.30;99.90;;;;;;5101287;28;20477;-83
2022/09/27 00:40:57;;;;;;;2.93;1.50;;;12.20;99.90;;;;;;5109150;28;20457;-83
2022/09/27 00:43:23;;;;;;;1.87;1.67;;;12.30;99.90;;;;;;5111431;28;20478;-82
2022/09/27 00:46:02;;;;;;;2.03;1.50;;;12.30;99.90;;;;;;5105394;28;20460;-82
2022/09/27 00:48:31;;;;;;;2.80;2.10;;;12.30;99.90;;;;;;5137900;28;20430;-83
2022/09/27 00:51:02;;;;;;;3.37;1.50;;;12.30;99.90;;;;;;5122581;28;20473;-81
2022/09/27 00:53:45;;;;;;;2.80;1.50;;;12.30;99.90;;;;;;5123554;28;20472;-82
2022/09/27 00:56:17;;;;;;;1.67;1.40;;;12.30;99.90;;;;;;5120906;28;20483;-81
2022/09/27 00:58:50;;;;;;;4.70;1.80;;;12.30;99.90;;;;;;5140979;28;20496;-80
2022/09/27 01:01:17;;;;;;;3.43;1.60;;;12.40;99.90;;;;;;5130491;28;20457;-84
2022/09/27 01:04:09;;;;;;;5.23;1.90;;;12.40;99.90;;;;;;5102697;28;20476;-84
2022/09/27 01:06:37;;;;;;;3.17;1.97;;;12.40;99.90;;;;;;5085780;28;20451;-84
2022/09/27 01:09:06;;;;;;;2.97;1.90;;;12.40;99.90;;;;;;5094737;28;20441;-84
2022/09/27 01:11:42;;;;;;;2.13;1.43;;;12.40;99.90;;;;;;5117337;28;20473;-83
2022/09/27 01:14:36;;;;;;;3.63;1.67;;;12.40;99.90;;;;;;5101280;28;20530;-81
2022/09/27 01:17:31;;;;;;;2.37;1.70;;;12.30;99.90;;;;;;5111401;28;20441;-84
2022/09/27 01:20:42;;;;;;;2.30;1.30;;;12.30;99.90;;;;;;5114577;28;20442;-82
2022/09/27 01:23:27;;;;;;;1.40;1.30;;;12.30;99.90;;;;;;5118406;28;20500;-81
2022/09/27 01:26:04;;;;;;;2.20;1.20;;;12.20;99.90;;;;;;5116668;28;20482;-81
2022/09/27 01:28:31;;;;;;;4.47;1.57;;;12.20;99.90;;;;;;5089894;28;20464;-83
2022/09/27 01:31:35;;;;;;;3.20;1.17;;;12.20;99.90;;;;;;5099233;28;20477;-83
2022/09/27 01:34:21;;;;;;;2.93;1.47;;;12.20;99.90;;;;;;5093534;28;20553;-83
2022/09/27 01:37:08;;;;;;;1.03;1.03;;;12.20;99.90;;;;;;5116887;28;20462;-83
2022/09/27 01:39:58;;;;;;;1.70;1.33;;;12.20;99.90;;;;;;5112178;28;20502;-80
2022/09/27 01:42:46;;;;;;;1.67;1.10;;;12.20;99.90;;;;;;5097894;28;20453;-83
2022/09/27 01:45:23;;;;;;;1.23;1.10;;;12.10;99.90;;;;;;5107984;28;20433;-81
2022/09/27 01:47:55;;;;;;;2.10;2.00;;;12.20;99.90;;;;;;5135452;28;20449;-81
2022/09/27 01:50:47;;;;;;;2.13;1.37;;;12.20;99.90;;;;;;5134949;28;20473;-82
2022/09/27 01:53:24;;;;;;;2.60;1.27;;;12.20;99.90;;;;;;5109806;28;20466;-82
2022/09/27 01:55:53;;;;;;;1.30;1.20;;;12.10;99.90;;;;;;5119936;28;20437;-83
2022/09/27 01:58:33;;;;;;;2.20;1.10;;;12.10;99.90;;;;;;5113975;28;20880;-83
2022/09/27 02:01:00;;;;;;;2.30;2.20;;;12.20;99.90;;;;;;5094327;28;20458;-84
2022/09/27 02:03:33;;;;;;;1.80;1.70;;;12.10;99.90;;;;;;5113938;28;20484;-82
2022/09/27 02:06:11;;;;;;;1.90;1.30;;;12.10;99.90;;;;;;5093453;28;20990;-82
2022/09/27 02:09:04;;;;;;;1.47;1.37;;;12.10;99.90;;;;;;5113132;28;20453;-82
2022/09/27 02:11:33;;;;;;;2.40;1.77;;;12.20;99.90;;;;;;5092306;28;20530;-83
2022/09/27 02:14:10;;;;;;;3.77;2.13;;;12.10;99.90;;;;;;5116743;28;20504;-82
2022/09/27 02:17:04;;;;;;;3.67;1.63;;;12.20;99.90;;;;;;5118007;28;20531;-82
2022/09/27 02:19:39;;;;;;;1.70;1.60;;;12.10;99.90;;;;;;5116085;28;20467;-80
2022/09/27 02:22:31;;;;;;;6.37;1.77;;;12.10;99.90;;;;;;5103091;28;20469;-81
2022/09/27 02:25:23;;;;;;;3.27;1.77;;;12.10;99.90;;;;;;5112356;28;20459;-82
2022/09/27 02:28:06;;;;;;;1.50;1.40;;;12.00;99.90;;;;;;5097570;28;20449;-83
2022/09/27 02:30:32;;;;;;;2.40;1.33;;;12.00;99.90;;;;;;5111920;28;20470;-81
2022/09/27 02:32:59;;;;;;;2.13;1.67;;;12.10;99.90;;;;;;5128017;28;20485;-82
2022/09/27 02:35:34;;;;;;;1.67;1.50;;;12.00;99.90;;;;;;5130093;28;20434;-81
2022/09/27 02:38:02;;;;;;;5.17;1.60;;;12.00;99.90;;;;;;5123009;28;20456;-82
2022/09/27 02:40:33;;;;;;;1.63;1.50;;;12.00;99.90;;;;;;5118253;28;20476;-83
2022/09/27 02:43:02;;;;;;;2.50;1.40;;;12.00;99.90;;;;;;5112053;28;20485;-83
2022/09/27 02:45:46;;;;;;;2.57;1.80;;;11.90;99.90;;;;;;5114234;28;20441;-84
2022/09/27 02:48:35;;;;;;;3.33;1.40;;;11.90;99.90;;;;;;5109403;28;20463;-80
2022/09/27 02:51:14;;;;;;;2.40;1.50;;;11.90;99.90;;;;;;5120866;28;20482;-81
2022/09/27 02:53:52;;;;;;;1.53;1.30;;;11.80;99.90;;;;;;5103356;28;20463;-81
2022/09/27 02:56:32;;;;;;;1.90;1.60;;;11.90;99.90;;;;;;5097163;28;20446;-82
2022/09/27 02:59:36;;;;;;;3.63;1.10;;;11.90;99.90;;;;;;5096342;28;20446;-82
2022/09/27 03:02:22;;;;;;;1.53;1.37;;;11.90;99.90;;;;;;5094130;28;20449;-82
2022/09/27 03:04:54;;;;;;;1.47;1.37;;;11.90;99.90;;;;;;5116579;28;20441;-83
2022/09/27 03:07:21;;;;;;;2.90;1.60;;;11.90;99.90;;;;;;5094483;28;20831;-84
2022/09/27 03:09:50;;;;;;;4.70;2.50;;;11.90;99.90;;;;;;5114347;28;20441;-83
2022/09/27 03:12:21;;;;;;;1.63;1.30;;;11.90;99.90;;;;;;5094032;28;20474;-84
2022/09/27 03:14:48;;;;;;;2.07;1.10;;;11.90;99.90;;;;;;5116606;28;20459;-83
2022/09/27 03:17:16;;;;;;;1.43;1.33;;;11.90;99.90;;;;;;5106802;28;20466;-83
2022/09/27 03:19:42;;;;;;;1.83;1.33;;;11.90;99.90;;;;;;5097381;28;20498;-82
2022/09/27 03:22:09;;;;;;;2.93;1.63;;;11.80;99.90;;;;;;5097078;28;20502;-81
2022/09/27 03:24:35;;;;;;;1.17;1.17;;;11.80;99.90;;;;;;5096580;28;20478;-82
2022/09/27 03:27:02;;;;;;;1.50;1.40;;;11.90;99.90;;;;;;5115158;28;20479;-82
2022/09/27 03:29:29;;;;;;;1.40;1.30;;;11.90;99.90;;;;;;5110931;28;20495;-84
2022/09/27 03:31:55;;;;;;;0.70;0.70;;;11.90;99.90;;;;;;5123880;28;20478;-82
2022/09/27 03:34:22;;;;;;;4.30;1.10;;;11.90;99.90;;;;;;5111103;28;20461;-83
2022/09/27 03:36:49;;;;;;;1.20;1.10;;;11.80;99.90;;;;;;5119558;28;20438;-81
2022/09/27 03:39:16;;;;;;;1.70;1.20;;;11.90;99.90;;;;;;5108756;28;20448;-83
2022/09/27 03:41:43;;;;;;;2.53;1.27;;;11.80;99.90;;;;;;5109339;28;20446;-81
2022/09/27 03:44:09;;;;;;;0.93;0.93;;;11.80;99.90;;;;;;5120953;28;20473;-82
2022/09/27 03:46:36;;;;;;;1.40;0.77;;;11.80;99.90;;;;;;5113487;28;20446;-83
2022/09/27 03:49:03;;;;;;;0.97;0.87;;;11.80;99.90;;;;;;5115573;28;21017;-83
2022/09/27 03:51:30;;;;;;;4.20;1.00;;;11.70;99.90;;;;;;5111310;28;20846;-82
2022/09/27 03:53:57;;;;;;;1.10;1.00;;;11.70;99.90;;;;;;5113158;28;20469;-83
2022/09/27 03:56:24;;;;;;;1.30;0.80;;;11.60;99.90;;;;;;5116710;28;20487;-84
2022/09/27 03:58:51;;;;;;;1.27;0.90;;;11.60;99.90;;;;;;5098350;28;20434;-82
2022/09/27 04:01:18;;;;;;;2.63;1.20;;;11.60;99.90;;;;;;5113574;28;20445;-83
2022/09/27 04:03:44;;;;;;;1.57;0.90;;;11.60;99.90;;;;;;5095976;28;20485;-82
2022/09/27 04:06:12;;;;;;;1.80;1.40;;;11.70;99.90;;;;;;5095321;28;20477;-81
2022/09/27 04:08:39;;;;;;;2.00;1.50;;;11.60;99.90;;;;;;5108680;28;20438;-82
2022/09/27 04:11:05;;;;;;;2.10;1.90;;;11.60;99.90;;;;;;5109178;28;20558;-83
2022/09/27 04:13:32;;;;;;;1.17;1.07;;;11.50;99.90;;;;;;5097083;28;20465;-83
2022/09/27 04:16:01;;;;;;;1.40;1.20;;;11.40;99.90;;;;;;5114994;28;20474;-81
2022/09/27 04:18:28;;;;;;;2.17;1.40;;;11.40;99.90;;;;;;5108320;28;20445;-81
2022/09/27 04:20:55;;;;;;;1.50;1.00;;;11.40;99.90;;;;;;5115085;28;20485;-83
2022/09/27 04:23:22;;;;;;;1.50;1.20;;;11.40;99.90;;;;;;5115162;28;20501;-82
2022/09/27 04:25:54;;;;;;;1.10;1.00;;;11.40;99.90;;;;;;5091299;28;20463;-81
2022/09/27 04:28:21;;;;;;;1.83;1.03;;;11.40;99.90;;;;;;5113433;28;20454;-83
2022/09/27 04:30:48;;;;;;;0.90;0.70;;;11.40;99.90;;;;;;5088425;28;20474;-83
2022/09/27 04:33:14;;;;;;;1.30;0.87;;;11.30;99.90;;;;;;5108851;28;20477;-83
2022/09/27 04:38:27;;;;;;;3.10;1.43;;;11.30;99.90;;;;;;5113411;28;20483;-83
2022/09/27 04:40:54;;;;;;;2.10;1.33;;;11.30;99.90;;;;;;5099331;28;20477;-80
2022/09/27 04:43:21;;;;;;;1.43;1.10;;;11.30;99.90;;;;;;5108969;28;20622;-83
2022/09/27 04:45:47;;;;;;;4.70;1.63;;;11.30;99.90;;;;;;5110845;28;21224;-83
2022/09/27 04:48:14;;;;;;;2.70;1.80;;;11.30;99.90;;;;;;5087197;28;20449;-82
2022/09/27 04:50:41;;;;;;;1.80;1.70;;;11.30;99.90;;;;;;5115287;28;20473;-82
2022/09/27 04:53:13;;;;;;;2.30;1.93;;;11.20;99.90;;;;;;5096178;28;20493;-82
2022/09/27 04:55:45;;;;;;;2.40;1.77;;;11.30;99.90;;;;;;5096964;28;20831;-81
2022/09/27 04:58:12;;;;;;;4.50;1.50;;;11.40;99.90;;;;;;5112762;28;20453;-83
2022/09/27 05:00:39;;;;;;;2.00;1.90;;;11.40;99.90;;;;;;5096572;28;20458;-83
2022/09/27 05:03:06;;;;;;;3.13;1.60;;;11.40;99.90;;;;;;5096661;28;20469;-83
2022/09/27 05:05:33;;;;;;;4.57;2.07;;;11.40;99.90;;;;;;5097046;28;20441;-83
2022/09/27 05:08:00;;;;;;;2.00;1.83;;;11.30;99.90;;;;;;5111020;28;20992;-83
2022/09/27 05:10:27;;;;;;;2.07;1.70;;;11.30;99.90;;;;;;5120091;27;20487;-82
2022/09/27 05:12:53;;;;;;;1.97;1.73;;;11.30;99.90;;;;;;5099358;28;20465;-83
2022/09/27 05:15:20;;;;;;;3.87;2.70;;;11.30;99.90;;;;;;5101074;28;20470;-82
2022/09/27 05:17:49;;;;;;;2.73;2.00;;;11.30;99.90;;;;;;5092486;28;20454;-83
2022/09/27 05:20:16;;;;;;;1.50;1.40;;;11.20;99.90;;;;;;5132097;28;20441;-82
2022/09/27 05:22:42;;;;;;;3.77;1.43;;;11.20;99.90;;;;;;5101483;28;20467;-81
2022/09/27 05:25:09;;;;;;;1.80;1.07;;;11.20;99.90;;;;;;5112368;28;20450;-82
2022/09/27 05:27:36;;;;;;;1.57;1.40;;;11.20;99.90;;;;;;5100618;28;20454;-81
2022/09/27 05:30:06;;;;;;;2.10;1.93;;;11.20;99.90;;;;;;5105828;28;20458;-81
2022/09/27 05:32:34;;;;;;;1.93;1.50;;;11.20;99.90;;;;;;5128484;28;20476;-82
2022/09/27 05:35:01;;;;;;;7.03;4.70;;;11.20;99.90;;;;;;5123303;28;20499;-84
2022/09/27 05:37:30;;;;;;;2.10;1.60;;;11.20;99.90;;;;;;5100809;28;20514;-84
2022/09/27 05:39:57;;;;;;;2.00;1.90;;;11.20;99.90;;;;;;5100595;28;20433;-83
2022/09/27 05:42:23;;;;;;;1.70;1.37;;;11.20;99.90;;;;;;5115122;28;20471;-83
2022/09/27 05:44:51;;;;;;;2.63;1.67;;;11.30;99.90;;;;;;5112580;28;20488;-83
2022/09/27 05:47:17;;;;;;;4.60;1.57;;;11.20;99.90;;;;;;5118190;28;20458;-84
2022/09/27 05:49:44;;;;;;;3.60;3.00;;;11.20;99.90;;;;;;5099643;28;20461;-83
2022/09/27 05:52:11;;;;;;;1.30;1.20;;;11.20;99.90;;;;;;5087655;28;20488;-83
2022/09/27 05:54:40;;;;;;;1.67;1.57;;;11.20;99.90;;;;;;5098485;28;20449;-84
2022/09/27 05:57:07;;;;;;;1.60;1.50;;;11.20;99.90;;;;;;5097319;28;20498;-82
2022/09/27 05:59:34;;;;;;;4.90;2.80;;;11.20;99.90;;;;;;5101477;28;20454;-84
2022/09/27 06:02:01;;;;;;;2.33;1.67;;;11.20;99.90;;;;;;5123829;28;20457;-82
2022/09/27 06:04:27;;;;;;;1.50;1.40;;;11.20;99.90;;;;;;5124789;28;20442;-83
2022/09/27 06:06:54;;;;;;;1.40;1.30;;;11.20;99.90;;;;;;5133386;28;20570;-81
2022/09/27 06:09:21;;;;;;;2.07;1.50;;;11.20;99.90;;;;;;5109563;28;20787;-82
2022/09/27 06:11:47;;;;;;;1.83;1.37;;;11.30;99.90;;;;;;5115090;28;20503;-81
2022/09/27 06:14:14;;;;;;;1.80;1.43;;;11.40;99.90;;;;;;5094154;28;20451;-84
2022/09/27 06:16:41;;;;;;;1.43;1.33;;;11.40;99.90;;;;;;5084445;28;20451;-83
2022/09/27 06:19:08;;;;;;;2.20;1.17;;;11.40;99.90;;;;;;5133217;28;20888;-82
2022/09/27 06:21:34;;;;;;;3.83;1.70;;;11.50;99.90;;;;;;5109532;28;20608;-82
2022/09/27 06:24:01;;;;;;;2.33;1.73;;;11.50;99.90;;;;;;5137538;28;20484;-83
2022/09/27 06:26:28;;;;;;;3.50;1.60;;;11.50;99.90;;;;;;5119000;28;20430;-82
2022/09/27 06:28:55;;;;;;;4.07;2.50;;;11.50;99.90;;;;;;5106343;28;20465;-82
2022/09/27 06:31:22;;;;;;;2.40;1.70;;;11.50;99.90;;;;;;5118257;28;20472;-82
2022/09/27 06:33:49;;;;;;;2.90;1.50;;;11.50;99.90;;;;;;5133476;28;20466;-81
2022/09/27 06:36:16;;;;;;;1.50;1.40;;;11.50;99.90;;;;;;5106883;28;20500;-83
2022/09/27 06:38:48;;;;;;;1.27;1.00;;;11.50;99.90;;;;;;5108237;28;20445;-83
2022/09/27 06:41:15;;;;;;;2.60;1.90;;;11.50;99.90;;;;;;5106461;28;20449;-82
2022/09/27 06:43:41;;;;;;;3.23;1.40;;;11.60;99.90;;;;;;5098960;28;20542;-81
2022/09/27 06:46:08;;;;;;;2.10;1.27;;;11.70;99.90;;;;;;5120798;28;20453;-83
2022/09/27 06:48:37;;;;;;;3.30;1.40;;;11.70;99.90;;;;;;5117880;28;20446;-82
2022/09/27 06:51:04;;;;;;;2.67;1.30;;;11.90;99.90;;;;;;5112210;28;20477;-83
2022/09/27 06:53:31;;;;;;;3.43;1.20;;;11.90;99.90;;;;;;5099065;28;20527;-82
2022/09/27 06:56:01;;;;;;;2.13;1.40;;;11.90;99.90;;;;;;5104400;28;20515;-83
2022/09/27 07:01:16;;;;;;;2.83;1.47;;;12.00;99.90;;;;;;5123058;28;20460;-81
2022/09/27 07:03:47;;;;;;;1.17;1.03;;;12.00;99.90;;;;;;5125298;28;20481;-81
2022/09/27 07:06:22;;;;;;;1.90;1.13;;;11.90;99.90;;;;;;5102483;28;20450;-81
2022/09/27 07:08:52;;;;;;;2.60;0.90;;;11.90;99.90;;;;;;5120093;28;20456;-84
2022/09/27 07:11:20;;;;;;;2.27;1.40;;;11.90;99.90;;;;;;5104658;28;20495;-83
2022/09/27 07:13:47;;;;;;;1.77;1.00;;;12.00;99.90;;;;;;5119397;28;21010;-83
2022/09/27 07:16:14;;;;;;;2.53;1.70;;;12.00;99.90;;;;;;5096398;28;20439;-81
2022/09/27 07:18:42;;;;;;;1.47;1.00;;;12.00;99.90;;;;;;5130358;28;20445;-82
2022/09/27 07:21:09;;;;;;;2.10;0.90;;;12.00;99.90;;;;;;5112998;28;20601;-83
2022/09/27 07:23:36;;;;;;;4.27;1.93;;;12.00;99.90;;;;;;5121875;28;20469;-82
2022/09/27 07:26:05;;;;;;;0.77;0.77;;;12.00;99.90;;;;;;5117011;28;20454;-82
2022/09/27 07:28:34;;;;;;;0.83;0.70;;;11.90;99.90;;;;;;5088986;28;20449;-81
2022/09/27 07:31:02;;;;;;;1.53;0.90;;;11.80;99.90;;;;;;5120787;28;20478;-83
2022/09/27 07:33:30;;;;;;;1.90;0.93;;;11.80;99.90;;;;;;5088256;28;21056;-83
2022/09/27 07:35:56;;;;;;;3.83;1.00;;;11.80;99.90;;;;;;5123637;28;20453;-84
2022/09/27 07:38:23;;;;;;;2.63;0.60;;;11.70;99.90;;;;;;5105218;28;20430;-83
2022/09/27 07:40:50;;;;;;;0.93;0.90;;;11.80;99.90;;;;;;5117095;28;20457;-83
2022/09/27 07:43:18;;;;;;;1.27;0.90;;;11.80;99.90;;;;;;5097324;28;20497;-82
2022/09/27 07:45:45;;;;;;;1.67;0.80;;;11.80;99.90;;;;;;5125052;28;20446;-82
2022/09/27 07:48:14;;;;;;;1.00;0.90;;;11.80;99.90;;;;;;5114440;28;20438;-81
2022/09/27 07:50:40;;;;;;;6.00;1.10;;;11.80;99.90;;;;;;5135238;28;20455;-82
2022/09/27 07:53:11;;;;;;;1.17;0.80;;;11.80;99.90;;;;;;5129617;28;20909;-82
2022/09/27 07:55:39;;;;;;;2.30;1.10;;;11.80;99.90;;;;;;5129314;28;20453;-81
2022/09/27 07:58:10;;;;;;;2.10;1.10;;;11.90;99.90;;;;;;5133234;28;20471;-80
2022/09/27 08:00:39;;;;;;;3.30;2.43;;;11.80;99.90;;;;;;5117372;28;20832;-80
2022/09/27 08:03:09;;;;;;;2.03;1.00;;;11.80;99.90;;;;;;5133802;28;20537;-80
2022/09/27 08:05:37;;;;;;;0.77;0.70;;;11.80;99.90;;;;;;5130773;28;20442;-82
2022/09/27 08:08:04;;;;;;;0.70;0.70;;;11.80;99.90;;;;;;5116875;28;20804;-82
2022/09/27 08:10:32;;;;;;;1.50;0.97;;;11.90;99.90;;;;;;5114650;28;20445;-83
2022/09/27 08:13:03;;;;;;;1.53;1.27;;;11.90;99.90;;;;;;5096345;28;20516;-83
2022/09/27 08:15:31;;;;;;;3.57;0.90;;;12.00;99.90;;;;;;5113859;28;20939;-82
2022/09/27 08:17:58;;;;;;;1.90;0.80;;;12.00;99.90;;;;;;5101228;28;20442;-83
2022/09/27 08:20:25;;;;;;;1.63;0.70;;;12.00;99.90;;;;;;5106260;28;20457;-82
2022/09/27 08:22:52;;;;;;;1.53;0.73;;;12.00;99.90;;;;;;5085984;28;20544;-84
2022/09/27 08:25:23;;;;;;;1.57;0.70;;;12.00;99.90;;;;;;5078326;28;20455;-81
2022/09/27 08:28:05;;;;;;;1.40;0.80;;;12.10;99.90;;;;;;5091440;28;20542;-82
2022/09/27 08:30:32;;;;;;;3.17;2.27;;;12.10;99.90;;;;;;5108234;28;20533;-83
2022/09/27 08:33:02;;;;;;;2.93;0.70;;;12.20;99.90;;;;;;5090539;28;20513;-82
2022/09/27 08:35:30;;;;;;;1.80;1.00;;;12.20;99.90;;;;;;5109873;28;20442;-82
2022/09/27 08:37:58;;;;;;;3.30;0.83;;;12.30;99.90;;;;;;5090799;28;20438;-81
2022/09/27 08:40:53;;;;;;;2.20;1.00;;;12.50;99.90;;;;;;5112984;28;20443;-84
2022/09/27 08:43:36;;;;;;;1.20;0.80;;;12.60;99.90;;;;;;5107982;28;20491;-82
2022/09/27 08:46:35;;;;;;;1.20;0.90;;;12.70;99.90;;;;;;5119317;28;20783;-83
2022/09/27 08:49:17;;;;;;;1.33;1.17;;;12.80;99.90;;;;;;5092062;28;20464;-83
2022/09/27 08:51:48;;;;;;;1.93;1.17;;;12.90;99.90;;;;;;5111531;28;20473;-83
2022/09/27 08:54:30;;;;;;;2.10;1.10;;;13.10;99.90;;;;;;5111917;28;20459;-83
2022/09/27 08:57:09;;;;;;;2.40;1.17;;;13.00;99.90;;;;;;5108134;28;20472;-81
2022/09/27 08:59:44;;;;;;;2.80;0.90;;;12.90;99.90;;;;;;5116414;28;20503;-82
2022/09/27 09:02:20;;;;;;;1.30;0.90;;;13.00;99.90;;;;;;5116690;28;20465;-83
2022/09/27 09:04:52;;;;;;;0.97;0.87;;;13.40;99.90;;;;;;5108785;28;20506;-83
2022/09/27 09:07:43;;;;;;;1.10;1.00;;;13.40;99.50;;;;;;5116352;28;20561;-84
2022/09/27 09:12:45;;;;;;;1.23;1.10;;;13.50;99.30;;;;;;5114106;28;20446;-81
2022/09/27 09:13:30;;;;;;;1.63;1.30;;;13.80;98.80;;;;;;5130354;28;20607;-83
2022/09/27 09:16:27;;;;;;;1.03;0.90;;;14.10;97.80;;;;;;5097037;28;20454;-82
2022/09/27 09:19:27;;;;;;;1.80;1.10;;;14.20;97.30;;;;;;5101790;28;20438;-82
2022/09/27 09:22:18;;;;;;;1.77;1.00;;;14.20;97.00;;;;;;5119823;28;20442;-83
2022/09/27 09:24:57;;;;;;;1.50;1.40;;;14.20;96.40;;;;;;5101204;28;20934;-83
2022/09/27 09:27:43;;;;;;;2.00;1.03;;;14.20;96.70;;;;;;5114001;28;20958;-83
2022/09/27 09:30:35;;;;;;;1.30;1.20;;;14.00;96.70;;;;;;5111380;28;20433;-83
2022/09/27 09:33:05;;;;;;;1.17;1.10;;;13.90;96.70;;;;;;5099919;28;20482;-83
2022/09/27 09:35:41;;;;;;;1.90;1.80;;;13.70;96.90;;;;;;5102303;28;20461;-81
2022/09/27 09:38:39;;;;;;;1.87;1.50;;;13.70;97.30;;;;;;5099117;28;20522;-82
2022/09/27 09:41:23;;;;;;;1.90;1.20;;;13.70;97.40;;;;;;5110658;28;20449;-83
2022/09/27 09:44:13;;;;;;;1.40;1.30;;;13.70;97.10;;;;;;5092012;28;20834;-83
2022/09/27 09:46:46;;;;;;;2.47;1.60;;;13.70;96.80;;;;;;5073368;28;20450;-82
2022/09/27 09:49:26;;;;;;;1.30;1.00;;;13.70;97.00;;;;;;5095286;28;20558;-83
2022/09/27 09:51:57;;;;;;;1.57;1.47;;;13.70;97.00;;;;;;5091301;28;20893;-84
2022/09/27 09:54:39;;;;;;;1.30;1.20;;;13.70;96.70;;;;;;5098961;28;20438;-82
2022/09/27 09:57:17;;;;;;;1.30;1.20;;;13.60;96.90;;;;;;5115947;28;20446;-82
2022/09/27 09:59:57;;;;;;;2.37;1.60;;;13.60;97.20;;;;;;5117668;28;20445;-83
2022/09/27 10:02:37;;;;;;;2.70;1.80;;;13.70;97.30;;;;;;5116078;28;20497;-83
2022/09/27 10:05:06;;;;;;;1.47;1.20;;;13.80;97.50;;;;;;5114970;28;20910;-83
2022/09/27 10:07:37;;;;;;;2.90;1.40;;;13.80;97.40;;;;;;5114213;28;20442;-83
2022/09/27 10:10:06;;;;;;;1.90;1.60;;;13.70;96.90;;;;;;5099930;28;20449;-83
2022/09/27 10:12:34;;;;;;;2.90;1.40;;;13.70;97.20;;;;;;5082825;28;20509;-83
2022/09/27 10:15:03;;;;;;;2.17;1.13;;;13.80;97.20;;;;;;5112341;28;20464;-83
2022/09/27 10:17:41;;;;;;;1.60;1.50;;;13.90;96.60;;;;;;5108339;28;20498;-83
2022/09/27 10:20:30;;;;;;;1.53;1.00;;;14.10;96.40;;;;;;5118947;28;20783;-80
2022/09/27 10:23:05;;;;;;;1.60;1.37;;;14.10;96.00;;;;;;5115411;28;20524;-82
2022/09/27 10:25:55;;;;;;;1.80;1.37;;;14.10;96.00;;;;;;5107504;28;20433;-83
2022/09/27 10:28:37;;;;;;;3.53;1.47;;;14.00;95.80;;;;;;5093807;28;20446;-84
2022/09/27 10:31:07;;;;;;;2.23;1.80;;;14.00;96.00;;;;;;5122903;28;20457;-83
2022/09/27 10:33:38;;;;;;;3.17;1.67;;;13.90;96.30;;;;;;5115227;28;20474;-83
2022/09/27 10:36:31;;;;;;;1.40;1.30;;;13.80;96.60;;;;;;5106499;28;20534;-82
2022/09/27 10:39:00;;;;;;;2.30;1.70;;;13.70;96.90;;;;;;5111806;28;20477;-85
2022/09/27 10:41:31;;;;;;;1.30;1.20;;;13.70;97.00;;;;;;5113227;28;20493;-83
2022/09/27 10:44:18;;;;;;;1.87;1.60;;;13.60;97.00;;;;;;5079619;28;20499;-83
2022/09/27 10:46:50;;;;;;;1.50;1.37;;;13.70;97.10;;;;;;5106193;28;20830;-83
2022/09/27 10:49:34;;;;;;;2.63;1.43;;;13.60;97.20;;;;;;5090763;28;20519;-83
2022/09/27 10:52:22;;;;;;;2.10;1.53;;;13.90;97.00;;;;;;5111630;28;20509;-82
2022/09/27 10:54:57;;;;;;;2.73;1.40;;;14.20;96.30;;;;;;5111606;28;20802;-83
2022/09/27 10:57:27;;;;;;;3.03;2.73;;;14.70;95.50;;;;;;5090948;28;20445;-81
2022/09/27 10:59:59;;;;;;;1.93;1.83;;;14.60;94.40;;;;;;5114022;28;20450;-83
2022/09/27 11:02:35;;;;;;;3.80;2.10;;;14.40;94.60;;;;;;5077836;28;20465;-83
2022/09/27 11:05:13;;;;;;;2.50;1.43;;;14.40;94.80;;;;;;5091226;28;20459;-82
2022/09/27 11:07:53;;;;;;;1.73;1.63;;;14.20;94.80;;;;;;5114779;28;20548;-83
2022/09/27 11:10:27;;;;;;;2.17;1.70;;;14.20;94.80;;;;;;5116951;28;20525;-83
2022/09/27 11:13:07;;;;;;;2.70;1.70;;;14.20;94.90;;;;;;5114420;28;20590;-83
2022/09/27 11:16:11;;;;;;;2.53;2.00;;;14.20;95.00;;;;;;5111876;28;20489;-81
2022/09/27 11:18:54;;;;;;;2.13;1.73;;;14.10;94.90;;;;;;5062785;28;20445;-82
2022/09/27 11:21:38;;;;;;;2.60;1.63;;;13.90;95.30;;;;;;5113256;28;20445;-83
2022/09/27 11:24:35;;;;;;;2.73;2.43;;;13.90;95.50;;;;;;5092681;28;20900;-83
2022/09/27 11:27:33;;;;;;;2.13;1.60;;;13.90;95.40;;;;;;5110864;28;20467;-83
2022/09/27 11:30:10;;;;;;;3.53;1.90;;;14.10;95.70;;;;;;5112389;28;20528;-83
2022/09/27 11:33:04;;;;;;;2.20;1.80;;;14.20;95.50;;;;;;5089605;28;20489;-83
2022/09/27 11:36:04;;;;;;;2.23;1.60;;;14.30;95.20;;;;;;5113930;28;20449;-81
2022/09/27 11:38:34;;;;;;;3.13;2.10;;;14.30;95.00;;;;;;5107806;28;20522;-82
2022/09/27 11:41:39;;;;;;;2.23;2.07;;;14.40;95.10;;;;;;5121658;28;20465;-82
2022/09/27 11:44:30;;;;;;;3.07;1.90;;;14.40;95.20;;;;;;5108571;28;20473;-82
2022/09/27 11:47:26;;;;;;;2.00;1.80;;;14.30;95.00;;;;;;5119309;28;20485;-81
2022/09/27 11:49:56;;;;;;;2.87;1.93;;;14.30;95.00;;;;;;5113710;28;20476;-83
2022/09/27 11:52:30;;;;;;;2.60;2.10;;;14.20;94.90;;;;;;5100522;28;20496;-82
2022/09/27 11:55:17;;;;;;;2.93;2.00;;;14.20;95.40;;;;;;5121236;28;20503;-81
2022/09/27 11:57:59;;;;;;;2.27;2.07;;;14.30;95.10;;;;;;5128305;28;20430;-83
2022/09/27 12:01:12;;;;;;;3.07;1.70;;;14.40;95.10;;;;;;5117960;28;20435;-82
2022/09/27 12:04:00;;;;;;;6.40;1.70;;;14.50;94.90;;;;;;5128091;28;20477;-80
2022/09/27 12:06:46;;;;;;;3.10;2.07;;;14.60;94.70;;;;;;5128051;28;20450;-81
2022/09/27 12:09:22;;;;;;;2.20;2.00;;;14.60;94.10;;;;;;5124442;28;20464;-83
2022/09/27 12:12:05;;;;;;;4.10;2.03;;;14.70;94.10;;;;;;5116324;28;20526;-82
2022/09/27 12:14:46;;;;;;;2.63;1.90;;;15.10;94.20;;;;;;5102875;28;21002;-82
2022/09/27 12:17:24;;;;;;;1.70;1.60;;;15.10;93.40;;;;;;5122829;28;20471;-82
2022/09/27 12:19:57;;;;;;;3.37;1.47;;;14.90;93.70;;;;;;5097370;28;20473;-83
2022/09/27 12:22:31;;;;;;;2.00;1.77;;;14.80;93.60;;;;;;5120082;28;20547;-83
2022/09/27 12:25:19;;;;;;;2.00;1.80;;;14.80;93.80;;;;;;5102720;28;20510;-82
2022/09/27 12:27:56;;;;;;;2.20;1.80;;;14.70;93.60;;;;;;5086404;28;20445;-83
2022/09/27 12:30:23;;;;;;;2.50;2.33;;;14.60;95.30;;;;;;5089630;28;20525;-83
2022/09/27 12:33:07;;;;;;;2.37;2.10;;;14.10;97.40;;;;;;5096074;28;20571;-83
2022/09/27 12:35:41;;;;;;;2.90;2.33;;;13.90;98.50;;;;;;5090391;28;20483;-83
2022/09/27 12:38:14;;;;;;;3.43;1.60;;;13.80;99.60;;;;;;5097758;28;20453;-83
2022/09/27 12:40:53;;;;;;;2.60;1.23;;;13.70;99.90;;;;;;5116666;28;20460;-84
2022/09/27 12:43:27;;;;;;;1.47;1.37;;;13.70;99.90;;;;;;5116689;28;20473;-83
2022/09/27 12:46:35;;;;;;;3.30;1.57;;;13.90;99.90;;;;;;5104706;28;20441;-83
2022/09/27 12:49:17;;;;;;;1.90;1.30;;;14.10;99.90;;;;;;5107145;28;20541;-82
2022/09/27 12:51:55;;;;;;;2.93;1.60;;;14.10;99.90;;;;;;5121467;28;20438;-84
2022/09/27 12:54:27;;;;;;;2.07;1.30;;;14.10;99.80;;;;;;5124502;28;20479;-84
2022/09/27 12:57:12;;;;;;;2.33;1.90;;;14.00;99.50;;;;;;5102502;28;20473;-83
2022/09/27 13:00:07;;;;;;;1.87;1.77;;;14.30;99.90;;;;;;5091172;28;20963;-83
2022/09/27 13:02:52;;;;;;;1.80;1.70;;;14.10;99.30;;;;;;5090785;28;20481;-83
2022/09/27 13:05:49;;;;;;;1.33;1.23;;;13.90;99.90;;;;;;5109597;28;20503;-83
2022/09/27 13:08:59;;;;;;;2.40;1.10;;;13.70;99.70;;;;;;5112396;28;20488;-84
2022/09/27 13:11:41;;;;;;;1.10;1.00;;;13.50;99.70;;;;;;5091701;28;20525;-82
2022/09/27 13:14:25;;;;;;;2.83;1.00;;;13.30;99.90;;;;;;5087820;28;20509;-82
2022/09/27 13:16:52;;;;;;;1.13;0.80;;;13.20;99.90;;;;;;5073673;28;20552;-83
2022/09/27 13:19:39;;;;;;;1.20;1.10;;;13.10;99.90;;;;;;5072688;28;20553;-83
2022/09/27 13:22:27;;;;;;;0.83;0.73;;;13.00;99.90;;;;;;5089513;28;20490;-82
2022/09/27 13:24:54;;;;;;;1.60;1.23;;;12.90;99.90;;;;;;5060371;28;20472;-83
2022/09/27 13:27:26;;;;;;;1.33;1.23;;;12.90;99.90;;;;;;5089309;28;21587;-82
2022/09/27 13:30:19;;;;;;;1.23;1.13;;;13.00;99.90;;;;;;5089294;28;20462;-83
2022/09/27 13:33:07;;;;;;;1.40;1.10;;;13.00;99.90;;;;;;5076531;28;20568;-82